Time,TemperatureF,DewpointF,PressureIn,WindDirection,WindDirectionDegrees,WindSpeedMPH,WindSpeedGustMPH,Humidity,HourlyPrecipIn,Conditions,Clouds,dailyrainin,SolarRadiationWatts/m^2,SoftwareType,DateUTC
2013-01-08 00:02:00,32.0,32.0,-100.00,SSE,151,0.0,2.0,100,0.00,,,0.00,0.000000,,2013-01-08 08:02:00,
2013-01-08 00:12:00,32.0,32.0,-100.00,SSE,151,0.0,2.0,100,0.00,,,0.00,0.000000,,2013-01-08 08:12:00,
2013-01-08 00:22:00,32.0,32.0,-100.00,SSE,151,0.0,2.0,100,0.00,,,0.00,0.000000,,2013-01-08 08:22:00,
2013-01-08 00:32:00,32.0,32.0,-100.00,SSE,151,0.0,2.0,100,0.00,,,0.00,0.000000,,2013-01-08 08:32:00,
2013-01-08 00:42:00,32.0,32.0,-100.00,SSE,151,0.0,2.0,100,0.00,,,0.00,0.000000,,2013-01-08 08:42:00,
2013-01-08 01:12:00,31.0,31.0,-100.00,SSE,150,0.0,4.0,100,0.00,,,0.00,0.000000,,2013-01-08 09:12:00,
2013-01-08 01:22:00,31.0,31.0,-100.00,SSE,150,0.0,4.0,100,0.00,,,0.00,0.000000,,2013-01-08 09:22:00,
2013-01-08 01:32:00,31.0,31.0,-100.00,SSE,150,0.0,4.0,100,0.00,,,0.00,0.000000,,2013-01-08 09:32:00,
2013-01-08 01:42:00,31.0,31.0,-100.00,SSE,150,0.0,4.0,100,0.00,,,0.00,0.000000,,2013-01-08 09:42:00,
2013-01-08 02:12:00,30.0,30.0,-100.00,SE,141,0.0,0.0,100,0.00,,,0.00,0.000000,,2013-01-08 10:12:00,
2013-01-08 02:22:00,30.0,30.0,-100.00,SE,141,0.0,0.0,100,0.00,,,0.00,0.000000,,2013-01-08 10:22:00,
2013-01-08 02:32:00,30.0,30.0,-100.00,SE,141,0.0,0.0,100,0.00,,,0.00,0.000000,,2013-01-08 10:32:00,
2013-01-08 02:42:00,30.0,30.0,-100.00,SE,141,0.0,0.0,100,0.00,,,0.00,0.000000,,2013-01-08 10:42:00,
2013-01-08 03:12:00,29.0,29.0,-100.00,SSE,149,0.0,4.0,100,0.00,,,0.00,0.000000,,2013-01-08 11:12:00,
2013-01-08 03:22:00,29.0,29.0,-100.00,SSE,149,0.0,4.0,100,0.00,,,0.00,0.000000,,2013-01-08 11:22:00,
2013-01-08 03:32:00,29.0,29.0,-100.00,SSE,149,0.0,4.0,100,0.00,,,0.00,0.000000,,2013-01-08 11:32:00,
2013-01-08 03:42:00,29.0,29.0,-100.00,SSE,149,0.0,4.0,100,0.00,,,0.00,0.000000,,2013-01-08 11:42:00,
2013-01-08 04:12:00,28.0,28.0,-100.00,SSE,148,0.0,3.0,100,0.00,,,0.00,0.000000,,2013-01-08 12:12:00,
2013-01-08 04:22:00,28.0,28.0,-100.00,SSE,148,0.0,3.0,100,0.00,,,0.00,0.000000,,2013-01-08 12:22:00,
2013-01-08 04:32:00,28.0,28.0,-100.00,SSE,148,0.0,3.0,100,0.00,,,0.00,0.000000,,2013-01-08 12:32:00,
2013-01-08 04:42:00,28.0,28.0,-100.00,SSE,148,0.0,3.0,100,0.00,,,0.00,0.000000,,2013-01-08 12:42:00,
2013-01-08 05:12:00,27.0,27.0,-100.00,SE,141,0.0,3.0,100,0.00,,,0.00,0.000000,,2013-01-08 13:12:00,
2013-01-08 05:22:00,27.0,27.0,-100.00,SE,141,0.0,3.0,100,0.00,,,0.00,0.000000,,2013-01-08 13:22:00,
2013-01-08 05:32:00,27.0,27.0,-100.00,SE,141,0.0,3.0,100,0.00,,,0.00,0.000000,,2013-01-08 13:32:00,
2013-01-08 05:42:00,27.0,27.0,-100.00,SE,141,0.0,3.0,100,0.00,,,0.00,0.000000,,2013-01-08 13:42:00,
2013-01-08 06:12:00,27.0,27.0,-100.00,SE,137,0.0,0.0,100,0.00,,,0.00,0.000000,,2013-01-08 14:12:00,
2013-01-08 06:23:00,27.0,27.0,-100.00,SE,137,0.0,0.0,100,0.00,,,0.00,0.000000,,2013-01-08 14:23:00,
2013-01-08 06:33:00,27.0,27.0,-100.00,SE,137,0.0,0.0,100,0.00,,,0.00,0.000000,,2013-01-08 14:33:00,
2013-01-08 06:42:00,27.0,27.0,-100.00,SE,137,0.0,0.0,100,0.00,,,0.00,0.000000,,2013-01-08 14:42:00,
2013-01-08 07:02:00,26.0,26.0,-100.00,SSE,152,0.0,0.0,100,0.00,,,0.00,0.000000,,2013-01-08 15:02:00,
2013-01-08 07:12:00,26.0,26.0,-100.00,SSE,152,0.0,0.0,100,0.00,,,0.00,0.000000,,2013-01-08 15:12:00,
2013-01-08 07:22:00,26.0,26.0,-100.00,SSE,152,0.0,0.0,100,0.00,,,0.00,0.000000,,2013-01-08 15:22:00,
2013-01-08 07:33:00,26.0,26.0,-100.00,SSE,152,0.0,0.0,100,0.00,,,0.00,0.000000,,2013-01-08 15:33:00,
2013-01-08 07:42:00,26.0,26.0,-100.00,SSE,152,0.0,0.0,100,0.00,,,0.00,0.000000,,2013-01-08 15:42:00,
2013-01-08 08:12:00,27.0,27.0,-100.00,SSE,151,0.0,0.0,100,0.00,,,0.00,5.000000,,2013-01-08 16:12:00,
2013-01-08 08:22:00,27.0,27.0,-100.00,SSE,151,0.0,0.0,100,0.00,,,0.00,5.000000,,2013-01-08 16:22:00,
2013-01-08 08:33:00,27.0,27.0,-100.00,SSE,151,0.0,0.0,100,0.00,,,0.00,5.000000,,2013-01-08 16:33:00,
2013-01-08 08:42:00,27.0,27.0,-100.00,SSE,151,0.0,0.0,100,0.00,,,0.00,5.000000,,2013-01-08 16:42:00,
2013-01-08 09:12:00,30.0,30.0,-100.00,SE,143,0.0,3.0,100,0.00,,,0.00,69.000000,,2013-01-08 17:12:00,
2013-01-08 09:23:00,30.0,30.0,-100.00,SE,143,0.0,3.0,100,0.00,,,0.00,69.000000,,2013-01-08 17:23:00,
2013-01-08 09:33:00,30.0,30.0,-100.00,SE,143,0.0,3.0,100,0.00,,,0.00,69.000000,,2013-01-08 17:33:00,
2013-01-08 09:42:00,30.0,30.0,-100.00,SE,143,0.0,3.0,100,0.00,,,0.00,69.000000,,2013-01-08 17:42:00,
2013-01-08 10:12:00,43.0,35.0,-100.00,SSE,147,0.0,2.0,72,0.00,,,0.00,330.000000,,2013-01-08 18:12:00,
2013-01-08 10:23:00,43.0,35.0,-100.00,SSE,147,0.0,2.0,72,0.00,,,0.00,330.000000,,2013-01-08 18:23:00,
2013-01-08 10:33:00,43.0,35.0,-100.00,SSE,147,0.0,2.0,72,0.00,,,0.00,330.000000,,2013-01-08 18:33:00,
2013-01-08 10:43:00,43.0,35.0,-100.00,SSE,147,0.0,2.0,72,0.00,,,0.00,330.000000,,2013-01-08 18:43:00,
2013-01-08 11:12:00,55.0,32.0,-100.00,SE,143,0.0,0.0,42,0.00,,,0.00,494.000000,,2013-01-08 19:12:00,
2013-01-08 11:22:00,55.0,32.0,-100.00,SE,143,0.0,0.0,42,0.00,,,0.00,494.000000,,2013-01-08 19:22:00,
2013-01-08 11:42:00,55.0,32.0,-100.00,SE,143,0.0,0.0,42,0.00,,,0.00,494.000000,,2013-01-08 19:42:00,
2013-01-08 12:12:00,58.0,31.0,-100.00,SE,146,0.0,0.0,35,0.00,,,0.00,420.000000,,2013-01-08 20:12:00,
2013-01-08 13:12:00,61.0,29.0,-100.00,SSE,153,0.0,0.0,29,-99.99,,,0.00,601.000000,,2013-01-08 21:12:00,
2013-01-08 13:22:00,61.0,29.0,-100.00,SSE,153,0.0,0.0,29,-99.99,,,0.00,601.000000,,2013-01-08 21:22:00,
2013-01-08 14:12:00,55.0,26.0,-100.00,ENE,70,2.0,6.0,33,-99.99,,,0.00,567.000000,,2013-01-08 22:12:00,
2013-01-08 14:22:00,55.0,26.0,-100.00,ENE,70,2.0,6.0,33,-99.99,,,0.00,567.000000,,2013-01-08 22:22:00,
2013-01-08 14:32:00,55.0,26.0,-100.00,ENE,70,2.0,6.0,33,-99.99,,,0.00,567.000000,,2013-01-08 22:32:00,
2013-01-08 14:42:00,55.0,26.0,-100.00,ENE,70,2.0,6.0,33,-99.99,,,0.00,567.000000,,2013-01-08 22:42:00,
2013-01-08 15:12:00,56.0,30.0,-100.00,East,95,1.0,8.0,37,0.00,,,0.00,461.000000,,2013-01-08 23:12:00,
2013-01-08 15:22:00,56.0,30.0,-100.00,East,95,1.0,8.0,37,0.00,,,0.00,461.000000,,2013-01-08 23:22:00,
2013-01-08 15:32:00,56.0,30.0,-100.00,East,95,1.0,8.0,37,0.00,,,0.00,461.000000,,2013-01-08 23:32:00,
2013-01-08 15:42:00,56.0,30.0,-100.00,East,95,1.0,8.0,37,0.00,,,0.00,461.000000,,2013-01-08 23:42:00,
2013-01-08 16:12:00,51.0,29.0,-100.00,SSE,156,1.0,8.0,42,-99.99,,,0.00,301.000000,,2013-01-09 00:12:00,
2013-01-08 16:22:00,51.0,29.0,-100.00,SSE,156,1.0,8.0,42,-99.99,,,0.00,301.000000,,2013-01-09 00:22:00,
2013-01-08 16:32:00,51.0,29.0,-100.00,SSE,156,1.0,8.0,42,-99.99,,,0.00,301.000000,,2013-01-09 00:32:00,
2013-01-08 16:42:00,51.0,29.0,-100.00,SSE,156,1.0,8.0,42,-99.99,,,0.00,301.000000,,2013-01-09 00:42:00,
2013-01-08 17:12:00,39.0,27.0,-100.00,SE,135,0.0,8.0,63,0.00,,,0.00,77.000000,,2013-01-09 01:12:00,
2013-01-08 17:22:00,39.0,27.0,-100.00,SE,135,0.0,8.0,63,0.00,,,0.00,77.000000,,2013-01-09 01:22:00,
2013-01-08 17:32:00,39.0,27.0,-100.00,SE,135,0.0,8.0,63,0.00,,,0.00,77.000000,,2013-01-09 01:32:00,
2013-01-08 17:42:00,39.0,27.0,-100.00,SE,135,0.0,8.0,63,0.00,,,0.00,77.000000,,2013-01-09 01:42:00,
2013-01-08 18:12:00,32.0,27.0,-100.00,SE,136,0.0,4.0,83,0.00,,,0.00,1.000000,,2013-01-09 02:12:00,
2013-01-08 18:22:00,32.0,27.0,-100.00,SE,136,0.0,4.0,83,0.00,,,0.00,1.000000,,2013-01-09 02:22:00,
2013-01-08 18:32:00,32.0,27.0,-100.00,SE,136,0.0,4.0,83,0.00,,,0.00,1.000000,,2013-01-09 02:32:00,
2013-01-08 18:42:00,32.0,27.0,-100.00,SE,136,0.0,4.0,83,0.00,,,0.00,1.000000,,2013-01-09 02:42:00,
2013-01-08 19:12:00,31.0,31.0,-100.00,SE,135,0.0,0.0,100,0.00,,,0.00,0.000000,,2013-01-09 03:12:00,
2013-01-08 19:22:00,31.0,31.0,-100.00,SE,135,0.0,0.0,100,0.00,,,0.00,0.000000,,2013-01-09 03:22:00,
2013-01-08 19:32:00,31.0,31.0,-100.00,SE,135,0.0,0.0,100,0.00,,,0.00,0.000000,,2013-01-09 03:32:00,
2013-01-08 19:42:00,31.0,31.0,-100.00,SE,135,0.0,0.0,100,0.00,,,0.00,0.000000,,2013-01-09 03:42:00,
2013-01-08 20:12:00,30.0,30.0,-100.00,SSE,151,0.0,4.0,100,0.00,,,0.00,0.000000,,2013-01-09 04:12:00,
2013-01-08 20:22:00,30.0,30.0,-100.00,SSE,151,0.0,4.0,100,0.00,,,0.00,0.000000,,2013-01-09 04:22:00,
2013-01-08 20:32:00,30.0,30.0,-100.00,SSE,151,0.0,4.0,100,0.00,,,0.00,0.000000,,2013-01-09 04:32:00,
2013-01-08 20:42:00,30.0,30.0,-100.00,SSE,151,0.0,4.0,100,0.00,,,0.00,0.000000,,2013-01-09 04:42:00,
2013-01-08 21:12:00,29.0,29.0,-100.00,SSE,153,0.0,3.0,100,0.00,,,0.00,0.000000,,2013-01-09 05:12:00,
2013-01-08 21:22:00,29.0,29.0,-100.00,SSE,153,0.0,3.0,100,0.00,,,0.00,0.000000,,2013-01-09 05:22:00,
2013-01-08 21:33:00,29.0,29.0,-100.00,SSE,153,0.0,3.0,100,0.00,,,0.00,0.000000,,2013-01-09 05:33:00,
2013-01-08 21:42:00,29.0,29.0,-100.00,SSE,153,0.0,3.0,100,0.00,,,0.00,0.000000,,2013-01-09 05:42:00,
2013-01-08 22:12:00,29.0,29.0,-100.00,SSE,159,0.0,3.0,100,0.00,,,0.00,0.000000,,2013-01-09 06:12:00,
2013-01-08 22:22:00,29.0,29.0,-100.00,SSE,159,0.0,3.0,100,0.00,,,0.00,0.000000,,2013-01-09 06:22:00,
2013-01-08 22:32:00,29.0,29.0,-100.00,SSE,159,0.0,3.0,100,0.00,,,0.00,0.000000,,2013-01-09 06:32:00,
2013-01-08 22:42:00,29.0,29.0,-100.00,SSE,159,0.0,3.0,100,0.00,,,0.00,0.000000,,2013-01-09 06:42:00,
2013-01-08 23:12:00,28.0,28.0,-100.00,SSE,156,0.0,3.0,100,0.00,,,0.00,0.000000,,2013-01-09 07:12:00,
2013-01-08 23:22:00,28.0,28.0,-100.00,SSE,156,0.0,3.0,100,0.00,,,0.00,0.000000,,2013-01-09 07:22:00,
2013-01-08 23:32:00,28.0,28.0,-100.00,SSE,156,0.0,3.0,100,0.00,,,0.00,0.000000,,2013-01-09 07:32:00,